메인 페이지
METAR-TAF:

METAR-TAF

공항 :

일로린, 나이지리아

위도: 08-29N, 경도: 004-35E, 고도: 308m

METAR: 누락

시각: 00:51 (23:51 UTC)

예보

예보는 42 시간 51분 전, 05:00시(UTC)에 발표되었습니다.
예보 대상 시간: 31일 06시부터 01일 12시까지 (UTC)
서남서5kt
시정 10km 이상
고도 900ft 상공 구름 보통
전환 중
31일 08시부터 31일 10시까지 (UTC)
고도 1200ft 상공 구름 많음
고도 2000ft 상공 구름 조금, 적란운.
전환 중
31일 20시부터 31일 22시까지 (UTC)
남남동3kt
시정 10km 이상
1500m 미만 상공 구름 및 적란운 없음

TAF: DNIL 310500Z 3106/0112 24005KT 9999 SCT009 BECMG 3108/3110 BKN012 FEW020CB BECMG 3120/3122 16003KT CAVOK

4,000개 이상의 공항 관측 자료 및 예보 (METAR 및 TAF 보고).

지도상에서 검색 가능한 기상관측소가 노란 점과 빨간 점으로 표시되어 있습니다.

기상관측소 명을 보려면 표시 위로 마우스를 이동하세요.

날씨 관측과 예보를 보려면 클릭하세요.

지도 변경 : 확대하려면 엑스 표시가 있는 녹색 버튼, 축소하려면 빼기 표시가 있는 녹색 버튼, 다음 페이지의 지도를 보려면 녹색 화살표를 클릭하세요.


METAR-TAF: